sensor_id;sensor_type;location;lat;lon;timestamp;temperature;humidity
40151;DHT22;25866;52.420;10.640;2023-07-02T00:02:07;16.00;99.90
40151;DHT22;25866;52.420;10.640;2023-07-02T00:04:33;16.00;99.90
40151;DHT22;25866;52.420;10.640;2023-07-02T00:07:01;16.00;99.90
40151;DHT22;25866;52.420;10.640;2023-07-02T00:09:36;16.00;99.90
40151;DHT22;25866;52.420;10.640;2023-07-02T00:12:02;16.00;99.90
40151;DHT22;25866;52.420;10.640;2023-07-02T00:14:34;16.00;99.90
40151;DHT22;25866;52.420;10.640;2023-07-02T00:17:00;16.00;99.90
40151;DHT22;25866;52.420;10.640;2023-07-02T00:19:26;16.00;99.90
40151;DHT22;25866;52.420;10.640;2023-07-02T00:21:51;16.00;99.90
40151;DHT22;25866;52.420;10.640;2023-07-02T00:24:27;16.00;99.90
40151;DHT22;25866;52.420;10.640;2023-07-02T00:27:02;16.00;99.90
40151;DHT22;25866;52.420;10.640;2023-07-02T00:29:31;16.00;99.90
40151;DHT22;25866;52.420;10.640;2023-07-02T00:31:57;16.00;99.90
40151;DHT22;25866;52.420;10.640;2023-07-02T00:34:28;16.10;99.90
40151;DHT22;25866;52.420;10.640;2023-07-02T00:37:14;16.00;99.90
40151;DHT22;25866;52.420;10.640;2023-07-02T00:39:41;16.00;99.90
40151;DHT22;25866;52.420;10.640;2023-07-02T00:42:09;16.00;99.90
40151;DHT22;25866;52.420;10.640;2023-07-02T00:44:44;16.00;99.90
40151;DHT22;25866;52.420;10.640;2023-07-02T00:47:14;16.00;99.90
40151;DHT22;25866;52.420;10.640;2023-07-02T00:49:41;16.10;99.90
40151;DHT22;25866;52.420;10.640;2023-07-02T00:52:07;16.00;99.90
40151;DHT22;25866;52.420;10.640;2023-07-02T00:54:37;16.00;99.90
40151;DHT22;25866;52.420;10.640;2023-07-02T00:57:12;16.00;99.90
40151;DHT22;25866;52.420;10.640;2023-07-02T00:59:44;16.00;99.90
40151;DHT22;25866;52.420;10.640;2023-07-02T01:02:10;16.00;99.90
40151;DHT22;25866;52.420;10.640;2023-07-02T01:04:36;16.00;99.90
40151;DHT22;25866;52.420;10.640;2023-07-02T01:07:02;16.00;99.90
40151;DHT22;25866;52.420;10.640;2023-07-02T01:09:34;16.00;99.90
40151;DHT22;25866;52.420;10.640;2023-07-02T01:12:14;16.00;99.90
40151;DHT22;25866;52.420;10.640;2023-07-02T01:14:52;16.00;99.90
40151;DHT22;25866;52.420;10.640;2023-07-02T01:17:19;15.90;99.90
40151;DHT22;25866;52.420;10.640;2023-07-02T01:19:50;16.00;99.90
40151;DHT22;25866;52.420;10.640;2023-07-02T01:22:27;16.00;99.90
40151;DHT22;25866;52.420;10.640;2023-07-02T01:24:58;16.00;99.90
40151;DHT22;25866;52.420;10.640;2023-07-02T01:27:24;15.90;99.90
40151;DHT22;25866;52.420;10.640;2023-07-02T01:29:53;15.90;99.90
40151;DHT22;25866;52.420;10.640;2023-07-02T01:32:22;15.90;99.90
40151;DHT22;25866;52.420;10.640;2023-07-02T01:34:48;15.90;99.90
40151;DHT22;25866;52.420;10.640;2023-07-02T01:37:23;15.90;99.90
40151;DHT22;25866;52.420;10.640;2023-07-02T01:39:55;15.90;99.90
40151;DHT22;25866;52.420;10.640;2023-07-02T01:42:28;15.80;99.90
40151;DHT22;25866;52.420;10.640;2023-07-02T01:44:55;15.80;99.90
40151;DHT22;25866;52.420;10.640;2023-07-02T01:47:21;15.80;99.90
40151;DHT22;25866;52.420;10.640;2023-07-02T01:49:47;15.70;99.90
40151;DHT22;25866;52.420;10.640;2023-07-02T01:52:13;15.70;99.90
40151;DHT22;25866;52.420;10.640;2023-07-02T01:54:41;15.60;99.90
40151;DHT22;25866;52.420;10.640;2023-07-02T01:57:10;15.60;99.90
40151;DHT22;25866;52.420;10.640;2023-07-02T01:59:36;15.60;99.90
40151;DHT22;25866;52.420;10.640;2023-07-02T02:02:02;15.60;99.90
40151;DHT22;25866;52.420;10.640;2023-07-02T02:04:39;15.50;99.90
40151;DHT22;25866;52.420;10.640;2023-07-02T02:07:08;15.50;99.90
40151;DHT22;25866;52.420;10.640;2023-07-02T02:09:34;15.50;99.90
40151;DHT22;25866;52.420;10.640;2023-07-02T02:11:59;15.50;99.90
40151;DHT22;25866;52.420;10.640;2023-07-02T02:14:26;15.50;99.90
40151;DHT22;25866;52.420;10.640;2023-07-02T02:16:52;15.50;99.90
40151;DHT22;25866;52.420;10.640;2023-07-02T02:19:21;15.40;99.90
40151;DHT22;25866;52.420;10.640;2023-07-02T02:21:46;15.40;99.90
40151;DHT22;25866;52.420;10.640;2023-07-02T02:24:14;15.40;99.90
40151;DHT22;25866;52.420;10.640;2023-07-02T02:26:42;15.40;99.90
40151;DHT22;25866;52.420;10.640;2023-07-02T02:29:08;15.30;99.90
40151;DHT22;25866;52.420;10.640;2023-07-02T02:31:34;15.30;99.90
40151;DHT22;25866;52.420;10.640;2023-07-02T02:33:59;15.30;99.90
40151;DHT22;25866;52.420;10.640;2023-07-02T02:36:25;15.20;99.90
40151;DHT22;25866;52.420;10.640;2023-07-02T02:38:51;15.20;99.90
40151;DHT22;25866;52.420;10.640;2023-07-02T02:41:17;15.20;99.90
40151;DHT22;25866;52.420;10.640;2023-07-02T02:43:45;15.20;99.90
40151;DHT22;25866;52.420;10.640;2023-07-02T02:46:11;15.10;99.90
40151;DHT22;25866;52.420;10.640;2023-07-02T02:48:37;15.10;99.90
40151;DHT22;25866;52.420;10.640;2023-07-02T02:51:03;15.10;99.90
40151;DHT22;25866;52.420;10.640;2023-07-02T02:53:29;15.00;99.90
40151;DHT22;25866;52.420;10.640;2023-07-02T02:56:02;15.00;99.90
40151;DHT22;25866;52.420;10.640;2023-07-02T02:58:27;15.10;99.90
40151;DHT22;25866;52.420;10.640;2023-07-02T03:00:53;15.10;99.90
40151;DHT22;25866;52.420;10.640;2023-07-02T03:03:19;15.10;99.90
40151;DHT22;25866;52.420;10.640;2023-07-02T03:05:46;15.10;99.90
40151;DHT22;25866;52.420;10.640;2023-07-02T03:08:14;15.10;99.90
40151;DHT22;25866;52.420;10.640;2023-07-02T03:10:40;15.20;99.90
40151;DHT22;25866;52.420;10.640;2023-07-02T03:13:05;15.20;99.90
40151;DHT22;25866;52.420;10.640;2023-07-02T03:15:37;15.20;99.90
40151;DHT22;25866;52.420;10.640;2023-07-02T03:18:05;15.20;99.90
40151;DHT22;25866;52.420;10.640;2023-07-02T03:20:37;15.20;99.90
40151;DHT22;25866;52.420;10.640;2023-07-02T03:23:03;15.20;99.90
40151;DHT22;25866;52.420;10.640;2023-07-02T03:25:29;15.20;99.90
40151;DHT22;25866;52.420;10.640;2023-07-02T03:27:54;15.20;99.90
40151;DHT22;25866;52.420;10.640;2023-07-02T03:30:20;15.20;99.90
40151;DHT22;25866;52.420;10.640;2023-07-02T03:32:46;15.20;99.90
40151;DHT22;25866;52.420;10.640;2023-07-02T03:35:13;15.20;99.90
40151;DHT22;25866;52.420;10.640;2023-07-02T03:37:39;15.20;99.90
40151;DHT22;25866;52.420;10.640;2023-07-02T03:40:09;15.20;99.90
40151;DHT22;25866;52.420;10.640;2023-07-02T03:42:35;15.20;99.90
40151;DHT22;25866;52.420;10.640;2023-07-02T03:45:07;15.20;99.90
40151;DHT22;25866;52.420;10.640;2023-07-02T03:47:33;15.20;99.90
40151;DHT22;25866;52.420;10.640;2023-07-02T03:49:58;15.30;99.90
40151;DHT22;25866;52.420;10.640;2023-07-02T03:52:26;15.30;99.90
40151;DHT22;25866;52.420;10.640;2023-07-02T03:54:52;15.30;99.90
40151;DHT22;25866;52.420;10.640;2023-07-02T03:57:24;15.30;99.90
40151;DHT22;25866;52.420;10.640;2023-07-02T03:59:51;15.30;99.90
40151;DHT22;25866;52.420;10.640;2023-07-02T04:02:17;15.30;99.90
40151;DHT22;25866;52.420;10.640;2023-07-02T04:04:46;15.30;99.90
40151;DHT22;25866;52.420;10.640;2023-07-02T04:07:12;15.40;99.90
40151;DHT22;25866;52.420;10.640;2023-07-02T04:09:41;15.40;99.90
40151;DHT22;25866;52.420;10.640;2023-07-02T04:12:07;15.40;99.90
40151;DHT22;25866;52.420;10.640;2023-07-02T04:14:35;15.30;99.90
40151;DHT22;25866;52.420;10.640;2023-07-02T04:17:07;15.40;99.90
40151;DHT22;25866;52.420;10.640;2023-07-02T04:19:33;15.50;99.90
40151;DHT22;25866;52.420;10.640;2023-07-02T04:21:59;15.50;99.90
40151;DHT22;25866;52.420;10.640;2023-07-02T04:24:28;15.60;99.90
40151;DHT22;25866;52.420;10.640;2023-07-02T04:26:54;15.60;99.90
40151;DHT22;25866;52.420;10.640;2023-07-02T04:29:26;15.60;99.90
40151;DHT22;25866;52.420;10.640;2023-07-02T04:31:51;15.70;99.90
40151;DHT22;25866;52.420;10.640;2023-07-02T04:34:17;15.70;99.90
40151;DHT22;25866;52.420;10.640;2023-07-02T04:36:44;15.70;99.90
40151;DHT22;25866;52.420;10.640;2023-07-02T04:39:12;15.70;99.90
40151;DHT22;25866;52.420;10.640;2023-07-02T04:41:40;15.70;99.90
40151;DHT22;25866;52.420;10.640;2023-07-02T04:44:06;15.70;99.90
40151;DHT22;25866;52.420;10.640;2023-07-02T04:46:35;15.70;99.90
40151;DHT22;25866;52.420;10.640;2023-07-02T04:49:03;15.70;99.90
40151;DHT22;25866;52.420;10.640;2023-07-02T04:51:29;15.70;99.90
40151;DHT22;25866;52.420;10.640;2023-07-02T04:53:55;15.70;99.90
40151;DHT22;25866;52.420;10.640;2023-07-02T04:56:21;15.70;99.90
40151;DHT22;25866;52.420;10.640;2023-07-02T04:58:46;15.60;99.90
40151;DHT22;25866;52.420;10.640;2023-07-02T05:01:12;15.60;99.90
40151;DHT22;25866;52.420;10.640;2023-07-02T05:03:38;15.60;99.90
40151;DHT22;25866;52.420;10.640;2023-07-02T05:06:13;15.60;99.90
40151;DHT22;25866;52.420;10.640;2023-07-02T05:08:42;15.60;99.90
40151;DHT22;25866;52.420;10.640;2023-07-02T05:11:10;15.50;99.90
40151;DHT22;25866;52.420;10.640;2023-07-02T05:13:36;15.50;99.90
40151;DHT22;25866;52.420;10.640;2023-07-02T05:16:10;15.60;99.90
40151;DHT22;25866;52.420;10.640;2023-07-02T05:18:36;15.60;99.90
40151;DHT22;25866;52.420;10.640;2023-07-02T05:21:17;15.60;99.90
40151;DHT22;25866;52.420;10.640;2023-07-02T05:23:45;15.60;99.90
40151;DHT22;25866;52.420;10.640;2023-07-02T05:26:10;15.70;99.90
40151;DHT22;25866;52.420;10.640;2023-07-02T05:28:39;15.60;99.90
40151;DHT22;25866;52.420;10.640;2023-07-02T05:31:13;15.70;99.90
40151;DHT22;25866;52.420;10.640;2023-07-02T05:33:56;15.60;99.90
40151;DHT22;25866;52.420;10.640;2023-07-02T05:36:31;15.70;99.90
40151;DHT22;25866;52.420;10.640;2023-07-02T05:38:57;15.70;99.90
40151;DHT22;25866;52.420;10.640;2023-07-02T05:41:22;15.70;99.90
40151;DHT22;25866;52.420;10.640;2023-07-02T05:43:49;15.70;99.90
40151;DHT22;25866;52.420;10.640;2023-07-02T05:46:18;15.70;99.90
40151;DHT22;25866;52.420;10.640;2023-07-02T05:48:54;15.70;99.90
40151;DHT22;25866;52.420;10.640;2023-07-02T05:51:25;15.70;99.90
40151;DHT22;25866;52.420;10.640;2023-07-02T05:53:56;15.70;99.90
40151;DHT22;25866;52.420;10.640;2023-07-02T05:56:25;15.70;99.90
40151;DHT22;25866;52.420;10.640;2023-07-02T05:58:59;15.70;99.90
40151;DHT22;25866;52.420;10.640;2023-07-02T06:01:37;15.80;99.90
40151;DHT22;25866;52.420;10.640;2023-07-02T06:04:12;15.80;99.90
40151;DHT22;25866;52.420;10.640;2023-07-02T06:17:42;15.80;99.90
40151;DHT22;25866;52.420;10.640;2023-07-02T06:20:12;15.90;99.90
40151;DHT22;25866;52.420;10.640;2023-07-02T06:22:45;15.90;99.90
40151;DHT22;25866;52.420;10.640;2023-07-02T06:25:11;16.00;99.90
40151;DHT22;25866;52.420;10.640;2023-07-02T06:27:41;16.00;99.90
40151;DHT22;25866;52.420;10.640;2023-07-02T06:32:58;16.10;99.90
40151;DHT22;25866;52.420;10.640;2023-07-02T06:35:32;16.20;99.90
40151;DHT22;25866;52.420;10.640;2023-07-02T06:44:11;16.50;99.90
40151;DHT22;25866;52.420;10.640;2023-07-02T06:50:36;16.50;99.90
40151;DHT22;25866;52.420;10.640;2023-07-02T06:53:10;16.70;99.90
40151;DHT22;25866;52.420;10.640;2023-07-02T06:55:35;16.70;99.90
40151;DHT22;25866;52.420;10.640;2023-07-02T06:58:14;16.90;99.90
40151;DHT22;25866;52.420;10.640;2023-07-02T07:00:49;17.10;99.90
40151;DHT22;25866;52.420;10.640;2023-07-02T07:03:18;17.30;99.90
40151;DHT22;25866;52.420;10.640;2023-07-02T07:05:44;17.40;99.90
40151;DHT22;25866;52.420;10.640;2023-07-02T07:08:10;17.50;99.90
40151;DHT22;25866;52.420;10.640;2023-07-02T07:10:40;17.70;99.90
40151;DHT22;25866;52.420;10.640;2023-07-02T07:13:08;17.90;99.90
40151;DHT22;25866;52.420;10.640;2023-07-02T07:15:39;18.00;99.90
40151;DHT22;25866;52.420;10.640;2023-07-02T07:18:05;18.00;99.90
40151;DHT22;25866;52.420;10.640;2023-07-02T07:20:41;18.10;99.90
40151;DHT22;25866;52.420;10.640;2023-07-02T07:23:12;18.00;99.90
40151;DHT22;25866;52.420;10.640;2023-07-02T07:25:38;18.20;99.90
40151;DHT22;25866;52.420;10.640;2023-07-02T07:28:11;18.40;99.90
40151;DHT22;25866;52.420;10.640;2023-07-02T07:30:41;18.50;99.90
40151;DHT22;25866;52.420;10.640;2023-07-02T07:33:07;18.60;99.90
40151;DHT22;25866;52.420;10.640;2023-07-02T07:35:39;18.60;99.90
40151;DHT22;25866;52.420;10.640;2023-07-02T07:38:04;18.60;99.90
40151;DHT22;25866;52.420;10.640;2023-07-02T07:40:30;18.60;99.90
40151;DHT22;25866;52.420;10.640;2023-07-02T07:42:56;18.80;99.90
40151;DHT22;25866;52.420;10.640;2023-07-02T07:45:21;18.80;99.90
40151;DHT22;25866;52.420;10.640;2023-07-02T07:47:48;18.90;99.90
40151;DHT22;25866;52.420;10.640;2023-07-02T07:50:22;18.90;99.90
40151;DHT22;25866;52.420;10.640;2023-07-02T07:53:03;19.00;99.90
40151;DHT22;25866;52.420;10.640;2023-07-02T07:55:34;19.00;99.90
40151;DHT22;25866;52.420;10.640;2023-07-02T07:58:05;19.20;99.90
40151;DHT22;25866;52.420;10.640;2023-07-02T08:00:30;19.30;99.90
40151;DHT22;25866;52.420;10.640;2023-07-02T08:02:56;19.20;99.90
40151;DHT22;25866;52.420;10.640;2023-07-02T08:05:22;19.00;99.90
40151;DHT22;25866;52.420;10.640;2023-07-02T08:07:50;18.90;99.90
40151;DHT22;25866;52.420;10.640;2023-07-02T08:10:16;18.80;99.90
40151;DHT22;25866;52.420;10.640;2023-07-02T08:12:42;18.80;99.90
40151;DHT22;25866;52.420;10.640;2023-07-02T08:15:08;18.90;99.90
40151;DHT22;25866;52.420;10.640;2023-07-02T08:17:34;19.00;99.90
40151;DHT22;25866;52.420;10.640;2023-07-02T08:20:00;19.00;99.90
40151;DHT22;25866;52.420;10.640;2023-07-02T08:22:25;19.10;99.90
40151;DHT22;25866;52.420;10.640;2023-07-02T08:24:51;19.20;99.90
40151;DHT22;25866;52.420;10.640;2023-07-02T08:27:19;19.20;99.90
40151;DHT22;25866;52.420;10.640;2023-07-02T08:29:47;19.00;99.90
40151;DHT22;25866;52.420;10.640;2023-07-02T08:32:14;18.90;99.90
40151;DHT22;25866;52.420;10.640;2023-07-02T08:34:39;18.70;99.90
40151;DHT22;25866;52.420;10.640;2023-07-02T08:37:05;18.70;99.90
40151;DHT22;25866;52.420;10.640;2023-07-02T08:39:40;19.00;99.90
40151;DHT22;25866;52.420;10.640;2023-07-02T08:42:06;19.30;99.90
40151;DHT22;25866;52.420;10.640;2023-07-02T08:44:32;19.50;99.90
40151;DHT22;25866;52.420;10.640;2023-07-02T08:46:59;19.70;99.90
40151;DHT22;25866;52.420;10.640;2023-07-02T08:49:25;19.90;99.90
40151;DHT22;25866;52.420;10.640;2023-07-02T08:51:50;20.00;99.90
40151;DHT22;25866;52.420;10.640;2023-07-02T08:54:20;19.80;99.90
40151;DHT22;25866;52.420;10.640;2023-07-02T08:56:46;19.80;99.90
40151;DHT22;25866;52.420;10.640;2023-07-02T08:59:13;19.70;99.90
40151;DHT22;25866;52.420;10.640;2023-07-02T09:02:05;19.60;99.90
40151;DHT22;25866;52.420;10.640;2023-07-02T09:04:31;19.40;99.90
40151;DHT22;25866;52.420;10.640;2023-07-02T09:07:10;19.50;99.90
40151;DHT22;25866;52.420;10.640;2023-07-02T09:09:49;19.40;99.90
40151;DHT22;25866;52.420;10.640;2023-07-02T09:12:28;19.70;99.90
40151;DHT22;25866;52.420;10.640;2023-07-02T09:14:55;19.80;99.90
40151;DHT22;25866;52.420;10.640;2023-07-02T09:17:30;20.10;99.90
40151;DHT22;25866;52.420;10.640;2023-07-02T09:20:00;20.20;99.90
40151;DHT22;25866;52.420;10.640;2023-07-02T09:22:27;20.20;99.90
40151;DHT22;25866;52.420;10.640;2023-07-02T09:24:56;20.30;99.90
40151;DHT22;25866;52.420;10.640;2023-07-02T09:27:35;20.30;99.90
40151;DHT22;25866;52.420;10.640;2023-07-02T09:30:12;20.40;99.90
40151;DHT22;25866;52.420;10.640;2023-07-02T09:32:42;20.40;99.90
40151;DHT22;25866;52.420;10.640;2023-07-02T09:35:11;20.50;99.90
40151;DHT22;25866;52.420;10.640;2023-07-02T09:37:39;20.60;99.60
40151;DHT22;25866;52.420;10.640;2023-07-02T09:40:09;20.70;99.90
40151;DHT22;25866;52.420;10.640;2023-07-02T09:42:37;20.50;99.90
40151;DHT22;25866;52.420;10.640;2023-07-02T09:45:07;20.60;99.90
40151;DHT22;25866;52.420;10.640;2023-07-02T09:47:35;20.60;99.90
40151;DHT22;25866;52.420;10.640;2023-07-02T09:50:04;20.60;99.90
40151;DHT22;25866;52.420;10.640;2023-07-02T09:52:34;20.80;99.90
40151;DHT22;25866;52.420;10.640;2023-07-02T09:55:01;20.90;98.00
40151;DHT22;25866;52.420;10.640;2023-07-02T09:57:26;20.80;99.10
40151;DHT22;25866;52.420;10.640;2023-07-02T10:00:00;20.70;99.00
40151;DHT22;25866;52.420;10.640;2023-07-02T10:02:26;20.50;99.60
40151;DHT22;25866;52.420;10.640;2023-07-02T10:04:51;20.50;99.40
40151;DHT22;25866;52.420;10.640;2023-07-02T10:07:30;20.70;99.70
40151;DHT22;25866;52.420;10.640;2023-07-02T10:09:58;20.80;98.40
40151;DHT22;25866;52.420;10.640;2023-07-02T10:12:25;20.70;98.00
40151;DHT22;25866;52.420;10.640;2023-07-02T10:14:54;20.60;99.90
40151;DHT22;25866;52.420;10.640;2023-07-02T10:17:38;20.40;98.10
40151;DHT22;25866;52.420;10.640;2023-07-02T10:20:05;20.30;98.20
40151;DHT22;25866;52.420;10.640;2023-07-02T10:22:47;20.20;99.40
40151;DHT22;25866;52.420;10.640;2023-07-02T10:25:30;20.20;99.20
40151;DHT22;25866;52.420;10.640;2023-07-02T10:27:58;20.40;99.30
40151;DHT22;25866;52.420;10.640;2023-07-02T10:30:37;20.10;97.90
40151;DHT22;25866;52.420;10.640;2023-07-02T10:33:16;19.90;99.30
40151;DHT22;25866;52.420;10.640;2023-07-02T10:35:45;19.70;99.20
40151;DHT22;25866;52.420;10.640;2023-07-02T10:40:45;19.30;99.90
40151;DHT22;25866;52.420;10.640;2023-07-02T10:43:12;19.40;99.70
40151;DHT22;25866;52.420;10.640;2023-07-02T10:45:41;19.60;99.90
40151;DHT22;25866;52.420;10.640;2023-07-02T10:48:10;19.90;99.80
40151;DHT22;25866;52.420;10.640;2023-07-02T10:50:40;20.30;99.90
40151;DHT22;25866;52.420;10.640;2023-07-02T10:53:17;20.50;99.40
40151;DHT22;25866;52.420;10.640;2023-07-02T10:55:44;20.70;99.60
40151;DHT22;25866;52.420;10.640;2023-07-02T10:58:12;20.70;99.90
40151;DHT22;25866;52.420;10.640;2023-07-02T11:00:47;20.60;99.90
40151;DHT22;25866;52.420;10.640;2023-07-02T11:05:57;20.10;97.40
40151;DHT22;25866;52.420;10.640;2023-07-02T11:08:40;19.90;97.80
40151;DHT22;25866;52.420;10.640;2023-07-02T11:15:25;20.10;98.20
40151;DHT22;25866;52.420;10.640;2023-07-02T11:18:22;20.10;99.90
40151;DHT22;25866;52.420;10.640;2023-07-02T11:21:10;20.40;99.90
40151;DHT22;25866;52.420;10.640;2023-07-02T11:23:37;20.80;99.90
40151;DHT22;25866;52.420;10.640;2023-07-02T11:26:03;21.10;97.80
40151;DHT22;25866;52.420;10.640;2023-07-02T11:28:31;21.30;98.00
40151;DHT22;25866;52.420;10.640;2023-07-02T11:31:00;21.60;97.70
40151;DHT22;25866;52.420;10.640;2023-07-02T11:33:38;21.40;95.10
40151;DHT22;25866;52.420;10.640;2023-07-02T11:36:05;21.10;94.80
40151;DHT22;25866;52.420;10.640;2023-07-02T11:38:31;20.90;96.80
40151;DHT22;25866;52.420;10.640;2023-07-02T11:41:06;21.00;96.70
40151;DHT22;25866;52.420;10.640;2023-07-02T11:43:32;21.10;98.20
40151;DHT22;25866;52.420;10.640;2023-07-02T11:45:59;21.20;97.80
40151;DHT22;25866;52.420;10.640;2023-07-02T11:48:25;21.40;97.40
40151;DHT22;25866;52.420;10.640;2023-07-02T11:50:54;21.30;97.20
40151;DHT22;25866;52.420;10.640;2023-07-02T11:53:20;21.30;96.10
40151;DHT22;25866;52.420;10.640;2023-07-02T11:55:46;21.30;95.80
40151;DHT22;25866;52.420;10.640;2023-07-02T11:58:12;21.50;96.70
40151;DHT22;25866;52.420;10.640;2023-07-02T12:00:37;21.80;97.30
40151;DHT22;25866;52.420;10.640;2023-07-02T12:03:03;21.90;95.90
40151;DHT22;25866;52.420;10.640;2023-07-02T12:05:29;22.00;98.10
40151;DHT22;25866;52.420;10.640;2023-07-02T12:07:55;21.60;94.90
40151;DHT22;25866;52.420;10.640;2023-07-02T12:10:21;21.10;96.00
40151;DHT22;25866;52.420;10.640;2023-07-02T12:12:49;20.90;98.00
40151;DHT22;25866;52.420;10.640;2023-07-02T12:15:14;20.90;97.20
40151;DHT22;25866;52.420;10.640;2023-07-02T12:17:40;21.00;97.60
40151;DHT22;25866;52.420;10.640;2023-07-02T12:20:06;21.20;98.70
40151;DHT22;25866;52.420;10.640;2023-07-02T12:22:32;21.40;97.80
40151;DHT22;25866;52.420;10.640;2023-07-02T12:24:58;21.50;93.90
40151;DHT22;25866;52.420;10.640;2023-07-02T12:27:24;21.60;96.40
40151;DHT22;25866;52.420;10.640;2023-07-02T12:29:52;21.70;95.90
40151;DHT22;25866;52.420;10.640;2023-07-02T12:32:18;21.90;97.10
40151;DHT22;25866;52.420;10.640;2023-07-02T12:34:44;22.00;96.20
40151;DHT22;25866;52.420;10.640;2023-07-02T12:37:10;21.70;94.10
40151;DHT22;25866;52.420;10.640;2023-07-02T12:39:35;21.40;96.70
40151;DHT22;25866;52.420;10.640;2023-07-02T12:42:03;21.20;96.10
40151;DHT22;25866;52.420;10.640;2023-07-02T12:44:29;21.40;97.50
40151;DHT22;25866;52.420;10.640;2023-07-02T12:46:55;21.70;96.00
40151;DHT22;25866;52.420;10.640;2023-07-02T12:49:23;21.80;95.00
40151;DHT22;25866;52.420;10.640;2023-07-02T12:51:49;21.60;95.10
40151;DHT22;25866;52.420;10.640;2023-07-02T12:54:14;21.30;93.10
40151;DHT22;25866;52.420;10.640;2023-07-02T12:56:43;20.90;93.90
40151;DHT22;25866;52.420;10.640;2023-07-02T12:59:09;20.80;95.40
40151;DHT22;25866;52.420;10.640;2023-07-02T13:01:38;20.60;95.90
40151;DHT22;25866;52.420;10.640;2023-07-02T13:04:04;20.60;96.80
40151;DHT22;25866;52.420;10.640;2023-07-02T13:06:31;20.80;96.00
40151;DHT22;25866;52.420;10.640;2023-07-02T13:09:03;20.90;96.30
40151;DHT22;25866;52.420;10.640;2023-07-02T13:11:29;21.20;97.10
40151;DHT22;25866;52.420;10.640;2023-07-02T13:13:54;21.40;95.10
40151;DHT22;25866;52.420;10.640;2023-07-02T13:16:21;21.40;94.90
40151;DHT22;25866;52.420;10.640;2023-07-02T13:18:47;21.40;96.20
40151;DHT22;25866;52.420;10.640;2023-07-02T13:21:13;21.50;95.10
40151;DHT22;25866;52.420;10.640;2023-07-02T13:23:38;21.70;95.20
40151;DHT22;25866;52.420;10.640;2023-07-02T13:26:04;21.90;95.70
40151;DHT22;25866;52.420;10.640;2023-07-02T13:28:30;22.00;97.00
40151;DHT22;25866;52.420;10.640;2023-07-02T13:30:55;22.00;95.00
40151;DHT22;25866;52.420;10.640;2023-07-02T13:33:26;21.80;93.40
40151;DHT22;25866;52.420;10.640;2023-07-02T13:35:54;21.70;95.10
40151;DHT22;25866;52.420;10.640;2023-07-02T13:38:20;21.50;94.90
40151;DHT22;25866;52.420;10.640;2023-07-02T13:40:48;21.30;93.50
40151;DHT22;25866;52.420;10.640;2023-07-02T13:43:14;21.00;94.90
40151;DHT22;25866;52.420;10.640;2023-07-02T13:45:39;20.80;94.30
40151;DHT22;25866;52.420;10.640;2023-07-02T13:48:05;20.60;95.80
40151;DHT22;25866;52.420;10.640;2023-07-02T13:50:31;20.60;95.70
40151;DHT22;25866;52.420;10.640;2023-07-02T13:53:03;20.60;97.30
40151;DHT22;25866;52.420;10.640;2023-07-02T13:55:29;21.00;96.50
40151;DHT22;25866;52.420;10.640;2023-07-02T13:57:56;21.20;95.30
40151;DHT22;25866;52.420;10.640;2023-07-02T14:00:27;21.30;94.20
40151;DHT22;25866;52.420;10.640;2023-07-02T14:02:53;21.40;93.80
40151;DHT22;25866;52.420;10.640;2023-07-02T14:05:20;21.40;94.60
40151;DHT22;25866;52.420;10.640;2023-07-02T14:07:46;21.80;93.30
40151;DHT22;25866;52.420;10.640;2023-07-02T14:10:12;22.10;93.90
40151;DHT22;25866;52.420;10.640;2023-07-02T14:12:42;22.20;93.00
40151;DHT22;25866;52.420;10.640;2023-07-02T14:15:09;21.80;92.00
40151;DHT22;25866;52.420;10.640;2023-07-02T14:17:35;21.50;93.90
40151;DHT22;25866;52.420;10.640;2023-07-02T14:20:02;21.40;93.50
40151;DHT22;25866;52.420;10.640;2023-07-02T14:22:28;21.50;93.30
40151;DHT22;25866;52.420;10.640;2023-07-02T14:24:54;21.30;94.10
40151;DHT22;25866;52.420;10.640;2023-07-02T14:27:20;21.10;94.50
40151;DHT22;25866;52.420;10.640;2023-07-02T14:29:46;21.00;95.80
40151;DHT22;25866;52.420;10.640;2023-07-02T14:32:15;20.90;95.40
40151;DHT22;25866;52.420;10.640;2023-07-02T14:34:43;21.10;94.90
40151;DHT22;25866;52.420;10.640;2023-07-02T14:37:09;21.30;93.40
40151;DHT22;25866;52.420;10.640;2023-07-02T14:39:35;21.40;95.80
40151;DHT22;25866;52.420;10.640;2023-07-02T14:42:01;21.50;93.60
40151;DHT22;25866;52.420;10.640;2023-07-02T14:44:28;21.40;96.10
40151;DHT22;25866;52.420;10.640;2023-07-02T14:46:56;21.80;95.10
40151;DHT22;25866;52.420;10.640;2023-07-02T14:49:22;21.70;93.20
40151;DHT22;25866;52.420;10.640;2023-07-02T14:51:48;21.50;93.70
40151;DHT22;25866;52.420;10.640;2023-07-02T14:54:14;21.10;94.30
40151;DHT22;25866;52.420;10.640;2023-07-02T14:56:40;21.00;95.40
40151;DHT22;25866;52.420;10.640;2023-07-02T14:59:06;20.90;96.30
40151;DHT22;25866;52.420;10.640;2023-07-02T15:01:34;21.10;95.40
40151;DHT22;25866;52.420;10.640;2023-07-02T15:04:01;21.40;96.30
40151;DHT22;25866;52.420;10.640;2023-07-02T15:06:27;21.70;96.70
40151;DHT22;25866;52.420;10.640;2023-07-02T15:08:52;22.00;96.10
40151;DHT22;25866;52.420;10.640;2023-07-02T15:11:18;22.00;93.30
40151;DHT22;25866;52.420;10.640;2023-07-02T15:13:56;22.00;94.00
40151;DHT22;25866;52.420;10.640;2023-07-02T15:16:23;22.10;94.20
40151;DHT22;25866;52.420;10.640;2023-07-02T15:18:49;22.30;93.60
40151;DHT22;25866;52.420;10.640;2023-07-02T15:21:15;22.30;94.10
40151;DHT22;25866;52.420;10.640;2023-07-02T15:23:43;22.40;92.10
40151;DHT22;25866;52.420;10.640;2023-07-02T15:26:08;22.40;91.80
40151;DHT22;25866;52.420;10.640;2023-07-02T15:28:35;22.50;93.70
40151;DHT22;25866;52.420;10.640;2023-07-02T15:31:09;22.40;92.60
40151;DHT22;25866;52.420;10.640;2023-07-02T15:33:43;22.10;92.90
40151;DHT22;25866;52.420;10.640;2023-07-02T15:36:11;22.20;92.70
40151;DHT22;25866;52.420;10.640;2023-07-02T15:38:39;22.00;92.40
40151;DHT22;25866;52.420;10.640;2023-07-02T15:41:10;21.70;92.90
40151;DHT22;25866;52.420;10.640;2023-07-02T15:43:44;21.40;93.60
40151;DHT22;25866;52.420;10.640;2023-07-02T15:46:12;21.20;93.80
40151;DHT22;25866;52.420;10.640;2023-07-02T15:48:38;21.20;94.10
40151;DHT22;25866;52.420;10.640;2023-07-02T15:51:05;21.10;93.30
40151;DHT22;25866;52.420;10.640;2023-07-02T15:53:38;21.00;93.90
40151;DHT22;25866;52.420;10.640;2023-07-02T15:56:04;21.10;95.00
40151;DHT22;25866;52.420;10.640;2023-07-02T15:58:31;21.40;94.60